sensor_id;sensor_type;location;lat;lon;timestamp;temperature;humidity
41447;DHT22;27185;52.040;4.490;2022-09-01T00:02:04;18.50;84.20
41447;DHT22;27185;52.040;4.490;2022-09-01T00:04:53;18.50;84.70
41447;DHT22;27185;52.040;4.490;2022-09-01T00:07:42;18.50;84.70
41447;DHT22;27185;52.040;4.490;2022-09-01T00:10:28;18.40;85.00
41447;DHT22;27185;52.040;4.490;2022-09-01T00:13:14;18.40;84.90
41447;DHT22;27185;52.040;4.490;2022-09-01T00:16:00;18.30;85.10
41447;DHT22;27185;52.040;4.490;2022-09-01T00:18:51;18.30;85.50
41447;DHT22;27185;52.040;4.490;2022-09-01T00:21:41;18.30;85.50
41447;DHT22;27185;52.040;4.490;2022-09-01T00:24:28;18.30;85.90
41447;DHT22;27185;52.040;4.490;2022-09-01T00:27:14;18.20;85.70
41447;DHT22;27185;52.040;4.490;2022-09-01T00:29:59;18.20;85.90
41447;DHT22;27185;52.040;4.490;2022-09-01T00:32:45;18.20;85.80
41447;DHT22;27185;52.040;4.490;2022-09-01T00:35:31;18.10;86.00
41447;DHT22;27185;52.040;4.490;2022-09-01T00:38:16;18.10;86.20
41447;DHT22;27185;52.040;4.490;2022-09-01T00:41:03;18.00;86.50
41447;DHT22;27185;52.040;4.490;2022-09-01T00:44:08;18.00;86.50
41447;DHT22;27185;52.040;4.490;2022-09-01T00:46:56;18.00;87.10
41447;DHT22;27185;52.040;4.490;2022-09-01T00:49:44;17.90;86.90
41447;DHT22;27185;52.040;4.490;2022-09-01T00:52:40;17.90;86.90
41447;DHT22;27185;52.040;4.490;2022-09-01T00:55:32;17.90;87.00
41447;DHT22;27185;52.040;4.490;2022-09-01T00:58:19;17.90;87.10
41447;DHT22;27185;52.040;4.490;2022-09-01T01:01:07;17.80;86.80
41447;DHT22;27185;52.040;4.490;2022-09-01T01:03:53;17.80;87.10
41447;DHT22;27185;52.040;4.490;2022-09-01T01:06:45;17.70;87.20
41447;DHT22;27185;52.040;4.490;2022-09-01T01:09:37;17.70;87.70
41447;DHT22;27185;52.040;4.490;2022-09-01T01:12:24;17.70;87.50
41447;DHT22;27185;52.040;4.490;2022-09-01T01:15:13;17.60;87.70
41447;DHT22;27185;52.040;4.490;2022-09-01T01:17:59;17.60;87.50
41447;DHT22;27185;52.040;4.490;2022-09-01T01:20:45;17.50;87.70
41447;DHT22;27185;52.040;4.490;2022-09-01T01:24:25;17.50;88.40
41447;DHT22;27185;52.040;4.490;2022-09-01T01:27:09;17.50;88.20
41447;DHT22;27185;52.040;4.490;2022-09-01T01:29:55;17.40;88.80
41447;DHT22;27185;52.040;4.490;2022-09-01T01:32:41;17.40;89.10
41447;DHT22;27185;52.040;4.490;2022-09-01T01:35:27;17.40;89.50
41447;DHT22;27185;52.040;4.490;2022-09-01T01:38:13;17.30;89.50
41447;DHT22;27185;52.040;4.490;2022-09-01T01:41:01;17.30;90.10
41447;DHT22;27185;52.040;4.490;2022-09-01T01:43:47;17.30;89.60
41447;DHT22;27185;52.040;4.490;2022-09-01T01:46:35;17.30;89.80
41447;DHT22;27185;52.040;4.490;2022-09-01T01:49:24;17.20;90.00
41447;DHT22;27185;52.040;4.490;2022-09-01T01:52:12;17.30;90.00
41447;DHT22;27185;52.040;4.490;2022-09-01T01:55:01;17.20;90.10
41447;DHT22;27185;52.040;4.490;2022-09-01T01:57:46;17.20;90.10
41447;DHT22;27185;52.040;4.490;2022-09-01T02:00:35;17.20;90.10
41447;DHT22;27185;52.040;4.490;2022-09-01T02:03:24;17.20;90.20
41447;DHT22;27185;52.040;4.490;2022-09-01T02:06:10;17.20;90.30
41447;DHT22;27185;52.040;4.490;2022-09-01T02:08:57;17.10;90.20
41447;DHT22;27185;52.040;4.490;2022-09-01T02:11:42;17.20;90.30
41447;DHT22;27185;52.040;4.490;2022-09-01T02:14:29;17.10;90.30
41447;DHT22;27185;52.040;4.490;2022-09-01T02:17:15;17.10;90.30
41447;DHT22;27185;52.040;4.490;2022-09-01T02:20:01;17.10;90.40
41447;DHT22;27185;52.040;4.490;2022-09-01T02:22:47;17.10;90.30
41447;DHT22;27185;52.040;4.490;2022-09-01T02:25:33;17.00;90.40
41447;DHT22;27185;52.040;4.490;2022-09-01T02:28:19;17.00;90.60
41447;DHT22;27185;52.040;4.490;2022-09-01T02:31:08;17.00;90.60
41447;DHT22;27185;52.040;4.490;2022-09-01T02:33:53;17.00;90.40
41447;DHT22;27185;52.040;4.490;2022-09-01T02:36:41;17.00;90.50
41447;DHT22;27185;52.040;4.490;2022-09-01T02:39:31;16.90;90.60
41447;DHT22;27185;52.040;4.490;2022-09-01T02:42:18;16.90;90.60
41447;DHT22;27185;52.040;4.490;2022-09-01T02:45:11;16.90;90.80
41447;DHT22;27185;52.040;4.490;2022-09-01T02:48:00;16.90;90.80
41447;DHT22;27185;52.040;4.490;2022-09-01T02:50:46;16.90;90.80
41447;DHT22;27185;52.040;4.490;2022-09-01T02:53:32;16.90;90.70
41447;DHT22;27185;52.040;4.490;2022-09-01T02:56:23;16.80;90.80
41447;DHT22;27185;52.040;4.490;2022-09-01T02:59:09;16.80;90.80
41447;DHT22;27185;52.040;4.490;2022-09-01T03:01:57;16.80;90.80
41447;DHT22;27185;52.040;4.490;2022-09-01T03:04:42;16.80;90.90
41447;DHT22;27185;52.040;4.490;2022-09-01T03:07:28;16.80;90.90
41447;DHT22;27185;52.040;4.490;2022-09-01T03:10:14;16.80;91.10
41447;DHT22;27185;52.040;4.490;2022-09-01T03:13:04;16.80;91.00
41447;DHT22;27185;52.040;4.490;2022-09-01T03:15:51;16.70;91.00
41447;DHT22;27185;52.040;4.490;2022-09-01T03:18:37;16.70;91.10
41447;DHT22;27185;52.040;4.490;2022-09-01T03:21:22;16.70;91.10
41447;DHT22;27185;52.040;4.490;2022-09-01T03:24:10;16.70;91.10
41447;DHT22;27185;52.040;4.490;2022-09-01T03:26:59;16.70;91.10
41447;DHT22;27185;52.040;4.490;2022-09-01T03:29:45;16.70;91.10
41447;DHT22;27185;52.040;4.490;2022-09-01T03:32:31;16.70;91.10
41447;DHT22;27185;52.040;4.490;2022-09-01T03:35:16;16.70;91.30
41447;DHT22;27185;52.040;4.490;2022-09-01T03:38:03;16.60;91.00
41447;DHT22;27185;52.040;4.490;2022-09-01T03:40:53;16.60;91.10
41447;DHT22;27185;52.040;4.490;2022-09-01T03:43:44;16.60;91.10
41447;DHT22;27185;52.040;4.490;2022-09-01T03:46:30;16.60;91.30
41447;DHT22;27185;52.040;4.490;2022-09-01T03:49:16;16.50;91.30
41447;DHT22;27185;52.040;4.490;2022-09-01T03:52:09;16.50;91.30
41447;DHT22;27185;52.040;4.490;2022-09-01T03:54:57;16.50;91.40
41447;DHT22;27185;52.040;4.490;2022-09-01T03:57:43;16.50;91.40
41447;DHT22;27185;52.040;4.490;2022-09-01T04:00:33;16.50;91.40
41447;DHT22;27185;52.040;4.490;2022-09-01T04:03:23;16.50;91.20
41447;DHT22;27185;52.040;4.490;2022-09-01T04:06:09;16.50;91.30
41447;DHT22;27185;52.040;4.490;2022-09-01T04:08:55;16.50;91.30
41447;DHT22;27185;52.040;4.490;2022-09-01T04:11:46;16.50;91.50
41447;DHT22;27185;52.040;4.490;2022-09-01T04:14:33;16.40;91.50
41447;DHT22;27185;52.040;4.490;2022-09-01T04:17:19;16.50;91.50
41447;DHT22;27185;52.040;4.490;2022-09-01T04:20:23;16.40;91.60
41447;DHT22;27185;52.040;4.490;2022-09-01T04:23:09;16.40;91.40
41447;DHT22;27185;52.040;4.490;2022-09-01T04:28:47;16.40;91.30
41447;DHT22;27185;52.040;4.490;2022-09-01T04:31:36;16.40;91.20
41447;DHT22;27185;52.040;4.490;2022-09-01T04:34:22;16.30;91.10
41447;DHT22;27185;52.040;4.490;2022-09-01T04:37:14;16.30;91.10
41447;DHT22;27185;52.040;4.490;2022-09-01T04:40:03;16.30;91.20
41447;DHT22;27185;52.040;4.490;2022-09-01T04:42:48;16.20;91.10
41447;DHT22;27185;52.040;4.490;2022-09-01T04:45:35;16.20;91.10
41447;DHT22;27185;52.040;4.490;2022-09-01T04:48:21;16.20;91.10
41447;DHT22;27185;52.040;4.490;2022-09-01T04:51:08;16.20;91.40
41447;DHT22;27185;52.040;4.490;2022-09-01T04:53:55;16.20;91.20
41447;DHT22;27185;52.040;4.490;2022-09-01T04:56:46;16.20;91.20
41447;DHT22;27185;52.040;4.490;2022-09-01T04:59:34;16.10;91.20
41447;DHT22;27185;52.040;4.490;2022-09-01T05:02:20;16.20;91.20
41447;DHT22;27185;52.040;4.490;2022-09-01T05:05:11;16.20;91.30
41447;DHT22;27185;52.040;4.490;2022-09-01T05:07:56;16.20;91.30
41447;DHT22;27185;52.040;4.490;2022-09-01T05:10:44;16.20;91.20
41447;DHT22;27185;52.040;4.490;2022-09-01T05:13:31;16.20;91.20
41447;DHT22;27185;52.040;4.490;2022-09-01T05:16:19;16.20;91.10
41447;DHT22;27185;52.040;4.490;2022-09-01T05:19:07;16.20;91.10
41447;DHT22;27185;52.040;4.490;2022-09-01T05:21:58;16.20;91.10
41447;DHT22;27185;52.040;4.490;2022-09-01T05:24:44;16.20;91.10
41447;DHT22;27185;52.040;4.490;2022-09-01T05:27:31;16.10;91.20
41447;DHT22;27185;52.040;4.490;2022-09-01T05:30:17;16.20;91.20
41447;DHT22;27185;52.040;4.490;2022-09-01T05:33:05;16.20;91.20
41447;DHT22;27185;52.040;4.490;2022-09-01T05:35:56;16.20;91.20
41447;DHT22;27185;52.040;4.490;2022-09-01T05:38:44;16.20;91.30
41447;DHT22;27185;52.040;4.490;2022-09-01T05:41:31;16.30;91.20
41447;DHT22;27185;52.040;4.490;2022-09-01T05:44:20;16.30;91.20
41447;DHT22;27185;52.040;4.490;2022-09-01T05:47:09;16.30;91.20
41447;DHT22;27185;52.040;4.490;2022-09-01T05:49:56;16.30;91.10
41447;DHT22;27185;52.040;4.490;2022-09-01T05:52:42;16.40;91.10
41447;DHT22;27185;52.040;4.490;2022-09-01T05:55:32;16.40;91.10
41447;DHT22;27185;52.040;4.490;2022-09-01T05:58:24;16.40;91.00
41447;DHT22;27185;52.040;4.490;2022-09-01T06:01:15;16.50;91.00
41447;DHT22;27185;52.040;4.490;2022-09-01T06:04:01;16.50;91.10
41447;DHT22;27185;52.040;4.490;2022-09-01T06:06:49;16.60;91.00
41447;DHT22;27185;52.040;4.490;2022-09-01T06:09:40;16.60;90.90
41447;DHT22;27185;52.040;4.490;2022-09-01T06:12:27;16.60;90.90
41447;DHT22;27185;52.040;4.490;2022-09-01T06:15:13;16.70;90.80
41447;DHT22;27185;52.040;4.490;2022-09-01T06:18:00;16.70;90.70
41447;DHT22;27185;52.040;4.490;2022-09-01T06:20:46;16.80;90.70
41447;DHT22;27185;52.040;4.490;2022-09-01T06:23:32;16.80;90.70
41447;DHT22;27185;52.040;4.490;2022-09-01T06:26:27;16.80;90.60
41447;DHT22;27185;52.040;4.490;2022-09-01T06:29:14;16.90;90.60
41447;DHT22;27185;52.040;4.490;2022-09-01T06:32:00;16.90;90.50
41447;DHT22;27185;52.040;4.490;2022-09-01T06:34:46;16.90;90.40
41447;DHT22;27185;52.040;4.490;2022-09-01T06:37:35;17.00;90.40
41447;DHT22;27185;52.040;4.490;2022-09-01T06:40:22;17.00;90.40
41447;DHT22;27185;52.040;4.490;2022-09-01T06:43:10;17.10;90.30
41447;DHT22;27185;52.040;4.490;2022-09-01T06:46:00;17.20;90.30
41447;DHT22;27185;52.040;4.490;2022-09-01T06:48:46;17.20;90.30
41447;DHT22;27185;52.040;4.490;2022-09-01T06:51:32;17.30;90.20
41447;DHT22;27185;52.040;4.490;2022-09-01T06:54:18;17.30;90.20
41447;DHT22;27185;52.040;4.490;2022-09-01T06:57:04;17.30;90.10
41447;DHT22;27185;52.040;4.490;2022-09-01T06:59:50;17.40;90.10
41447;DHT22;27185;52.040;4.490;2022-09-01T07:02:35;17.50;90.00
41447;DHT22;27185;52.040;4.490;2022-09-01T07:05:26;17.50;89.90
41447;DHT22;27185;52.040;4.490;2022-09-01T07:08:15;17.60;89.80
41447;DHT22;27185;52.040;4.490;2022-09-01T07:11:06;17.60;89.60
41447;DHT22;27185;52.040;4.490;2022-09-01T07:13:55;17.70;89.50
41447;DHT22;27185;52.040;4.490;2022-09-01T07:16:42;17.80;89.50
41447;DHT22;27185;52.040;4.490;2022-09-01T07:19:28;17.80;89.30
41447;DHT22;27185;52.040;4.490;2022-09-01T07:22:14;17.90;89.20
41447;DHT22;27185;52.040;4.490;2022-09-01T07:24:59;18.00;89.10
41447;DHT22;27185;52.040;4.490;2022-09-01T07:27:45;18.10;89.00
41447;DHT22;27185;52.040;4.490;2022-09-01T07:30:41;18.20;88.90
41447;DHT22;27185;52.040;4.490;2022-09-01T07:33:27;18.20;88.70
41447;DHT22;27185;52.040;4.490;2022-09-01T07:36:15;18.30;88.60
41447;DHT22;27185;52.040;4.490;2022-09-01T07:39:02;18.40;88.50
41447;DHT22;27185;52.040;4.490;2022-09-01T07:41:48;18.50;88.40
41447;DHT22;27185;52.040;4.490;2022-09-01T07:44:36;18.60;88.20
41447;DHT22;27185;52.040;4.490;2022-09-01T07:47:22;18.60;88.00
41447;DHT22;27185;52.040;4.490;2022-09-01T07:50:08;18.70;87.90
41447;DHT22;27185;52.040;4.490;2022-09-01T07:52:56;18.80;87.80
41447;DHT22;27185;52.040;4.490;2022-09-01T07:55:42;18.90;87.60
41447;DHT22;27185;52.040;4.490;2022-09-01T07:58:28;19.00;87.40
41447;DHT22;27185;52.040;4.490;2022-09-01T08:01:19;19.10;87.40
41447;DHT22;27185;52.040;4.490;2022-09-01T08:04:05;19.20;87.20
41447;DHT22;27185;52.040;4.490;2022-09-01T08:06:51;19.30;87.00
41447;DHT22;27185;52.040;4.490;2022-09-01T08:09:37;19.40;87.00
41447;DHT22;27185;52.040;4.490;2022-09-01T08:12:23;19.50;86.70
41447;DHT22;27185;52.040;4.490;2022-09-01T08:15:09;19.60;86.60
41447;DHT22;27185;52.040;4.490;2022-09-01T08:17:57;19.70;85.90
41447;DHT22;27185;52.040;4.490;2022-09-01T08:20:43;19.80;85.60
41447;DHT22;27185;52.040;4.490;2022-09-01T08:23:31;19.90;85.30
41447;DHT22;27185;52.040;4.490;2022-09-01T08:26:18;20.10;85.20
41447;DHT22;27185;52.040;4.490;2022-09-01T08:29:04;20.10;84.80
41447;DHT22;27185;52.040;4.490;2022-09-01T08:31:50;20.30;84.70
41447;DHT22;27185;52.040;4.490;2022-09-01T08:34:38;20.40;84.70
41447;DHT22;27185;52.040;4.490;2022-09-01T08:37:24;20.50;84.50
41447;DHT22;27185;52.040;4.490;2022-09-01T08:40:13;20.60;84.10
41447;DHT22;27185;52.040;4.490;2022-09-01T08:46:25;20.90;82.90
41447;DHT22;27185;52.040;4.490;2022-09-01T08:49:18;21.00;83.50
41447;DHT22;27185;52.040;4.490;2022-09-01T08:55:21;21.30;82.40
41447;DHT22;27185;52.040;4.490;2022-09-01T08:58:14;21.40;80.50
41447;DHT22;27185;52.040;4.490;2022-09-01T09:01:10;21.50;82.30
41447;DHT22;27185;52.040;4.490;2022-09-01T09:10:21;22.00;80.80
41447;DHT22;27185;52.040;4.490;2022-09-01T09:15:55;22.20;80.60
41447;DHT22;27185;52.040;4.490;2022-09-01T09:18:53;22.30;80.30
41447;DHT22;27185;52.040;4.490;2022-09-01T09:21:45;22.50;79.30
41447;DHT22;27185;52.040;4.490;2022-09-01T09:27:37;22.70;78.60
41447;DHT22;27185;52.040;4.490;2022-09-01T09:30:27;22.90;78.60
41447;DHT22;27185;52.040;4.490;2022-09-01T09:33:36;23.00;78.30
41447;DHT22;27185;52.040;4.490;2022-09-01T09:36:29;23.10;77.30
41447;DHT22;27185;52.040;4.490;2022-09-01T09:39:17;23.20;77.10
41447;DHT22;27185;52.040;4.490;2022-09-01T09:42:09;23.30;77.80
41447;DHT22;27185;52.040;4.490;2022-09-01T09:44:55;23.50;77.00
41447;DHT22;27185;52.040;4.490;2022-09-01T09:47:43;23.60;76.20
41447;DHT22;27185;52.040;4.490;2022-09-01T09:50:40;23.70;76.50
41447;DHT22;27185;52.040;4.490;2022-09-01T09:53:29;23.80;75.60
41447;DHT22;27185;52.040;4.490;2022-09-01T09:56:18;23.90;76.20
41447;DHT22;27185;52.040;4.490;2022-09-01T09:59:32;24.10;75.80
41447;DHT22;27185;52.040;4.490;2022-09-01T10:02:38;24.20;74.90
41447;DHT22;27185;52.040;4.490;2022-09-01T10:05:44;24.40;74.80
41447;DHT22;27185;52.040;4.490;2022-09-01T10:08:39;24.50;74.40
41447;DHT22;27185;52.040;4.490;2022-09-01T10:11:39;24.70;73.40
41447;DHT22;27185;52.040;4.490;2022-09-01T10:14:32;24.90;72.90
41447;DHT22;27185;52.040;4.490;2022-09-01T10:17:29;25.20;71.50
41447;DHT22;27185;52.040;4.490;2022-09-01T10:20:23;25.70;71.80
41447;DHT22;27185;52.040;4.490;2022-09-01T10:23:09;26.30;71.50
41447;DHT22;27185;52.040;4.490;2022-09-01T10:26:02;26.80;70.60
41447;DHT22;27185;52.040;4.490;2022-09-01T10:29:00;27.30;67.50
41447;DHT22;27185;52.040;4.490;2022-09-01T10:31:52;27.80;66.80
41447;DHT22;27185;52.040;4.490;2022-09-01T10:34:39;28.20;67.00
41447;DHT22;27185;52.040;4.490;2022-09-01T10:37:25;28.60;66.20
41447;DHT22;27185;52.040;4.490;2022-09-01T10:40:15;29.00;65.10
41447;DHT22;27185;52.040;4.490;2022-09-01T10:49:58;29.90;63.00
41447;DHT22;27185;52.040;4.490;2022-09-01T10:55:36;30.50;59.80
41447;DHT22;27185;52.040;4.490;2022-09-01T10:58:42;30.70;60.10
41447;DHT22;27185;52.040;4.490;2022-09-01T11:10:36;31.40;57.60
41447;DHT22;27185;52.040;4.490;2022-09-01T11:16:26;31.40;57.30
41447;DHT22;27185;52.040;4.490;2022-09-01T11:19:32;31.30;57.40
41447;DHT22;27185;52.040;4.490;2022-09-01T11:22:41;31.10;57.70
41447;DHT22;27185;52.040;4.490;2022-09-01T11:28:36;30.80;56.50
41447;DHT22;27185;52.040;4.490;2022-09-01T11:31:29;30.70;56.50
41447;DHT22;27185;52.040;4.490;2022-09-01T11:34:18;30.50;56.60
41447;DHT22;27185;52.040;4.490;2022-09-01T11:37:11;30.40;56.70
41447;DHT22;27185;52.040;4.490;2022-09-01T11:40:03;30.40;56.00
41447;DHT22;27185;52.040;4.490;2022-09-01T11:42:53;30.40;57.10
41447;DHT22;27185;52.040;4.490;2022-09-01T11:46:00;30.70;57.60
41447;DHT22;27185;52.040;4.490;2022-09-01T11:48:47;31.00;56.20
41447;DHT22;27185;52.040;4.490;2022-09-01T11:51:48;31.50;56.90
41447;DHT22;27185;52.040;4.490;2022-09-01T11:54:39;31.70;54.60
41447;DHT22;27185;52.040;4.490;2022-09-01T11:57:34;32.00;54.80
41447;DHT22;27185;52.040;4.490;2022-09-01T12:00:28;32.20;53.70
41447;DHT22;27185;52.040;4.490;2022-09-01T12:03:26;32.30;53.50
41447;DHT22;27185;52.040;4.490;2022-09-01T12:06:28;32.40;53.30
41447;DHT22;27185;52.040;4.490;2022-09-01T12:09:13;32.60;51.70
41447;DHT22;27185;52.040;4.490;2022-09-01T12:11:59;32.80;53.70
41447;DHT22;27185;52.040;4.490;2022-09-01T12:15:37;33.10;52.90
41447;DHT22;27185;52.040;4.490;2022-09-01T12:20:57;33.60;51.50
41447;DHT22;27185;52.040;4.490;2022-09-01T12:23:43;33.70;51.70
41447;DHT22;27185;52.040;4.490;2022-09-01T12:26:29;34.00;51.80
41447;DHT22;27185;52.040;4.490;2022-09-01T12:29:16;34.10;51.00
41447;DHT22;27185;52.040;4.490;2022-09-01T12:32:03;34.20;50.40
41447;DHT22;27185;52.040;4.490;2022-09-01T12:35:01;34.20;50.50
41447;DHT22;27185;52.040;4.490;2022-09-01T12:37:48;34.20;50.00
41447;DHT22;27185;52.040;4.490;2022-09-01T12:40:37;34.20;48.70
41447;DHT22;27185;52.040;4.490;2022-09-01T12:43:39;34.20;48.40
41447;DHT22;27185;52.040;4.490;2022-09-01T12:46:42;34.10;48.60
41447;DHT22;27185;52.040;4.490;2022-09-01T12:49:43;34.10;48.10
41447;DHT22;27185;52.040;4.490;2022-09-01T12:52:31;34.10;48.00
41447;DHT22;27185;52.040;4.490;2022-09-01T12:55:21;34.10;48.30
41447;DHT22;27185;52.040;4.490;2022-09-01T12:58:08;34.00;47.40
41447;DHT22;27185;52.040;4.490;2022-09-01T13:01:03;34.10;47.30
41447;DHT22;27185;52.040;4.490;2022-09-01T13:04:08;34.10;46.80
41447;DHT22;27185;52.040;4.490;2022-09-01T13:06:59;34.10;47.70
41447;DHT22;27185;52.040;4.490;2022-09-01T13:09:45;34.20;47.50
41447;DHT22;27185;52.040;4.490;2022-09-01T13:12:32;34.30;47.40
41447;DHT22;27185;52.040;4.490;2022-09-01T13:15:17;34.40;46.60
41447;DHT22;27185;52.040;4.490;2022-09-01T13:18:03;34.70;49.20
41447;DHT22;27185;52.040;4.490;2022-09-01T13:20:50;34.70;47.00
41447;DHT22;27185;52.040;4.490;2022-09-01T13:23:37;34.70;46.70
41447;DHT22;27185;52.040;4.490;2022-09-01T13:26:23;34.80;46.70
41447;DHT22;27185;52.040;4.490;2022-09-01T13:29:10;34.80;46.10
41447;DHT22;27185;52.040;4.490;2022-09-01T13:31:56;35.00;47.70
41447;DHT22;27185;52.040;4.490;2022-09-01T13:34:42;34.90;46.20
41447;DHT22;27185;52.040;4.490;2022-09-01T13:37:28;34.90;45.30
41447;DHT22;27185;52.040;4.490;2022-09-01T13:40:16;34.90;45.40
41447;DHT22;27185;52.040;4.490;2022-09-01T13:43:01;34.80;44.50
41447;DHT22;27185;52.040;4.490;2022-09-01T13:45:48;34.70;45.10
41447;DHT22;27185;52.040;4.490;2022-09-01T13:48:34;34.80;47.00
41447;DHT22;27185;52.040;4.490;2022-09-01T13:51:26;34.60;45.40
41447;DHT22;27185;52.040;4.490;2022-09-01T13:54:11;34.50;44.60
41447;DHT22;27185;52.040;4.490;2022-09-01T13:56:57;34.50;44.70
41447;DHT22;27185;52.040;4.490;2022-09-01T13:59:43;34.50;44.90
41447;DHT22;27185;52.040;4.490;2022-09-01T14:02:31;34.50;44.60
41447;DHT22;27185;52.040;4.490;2022-09-01T14:05:22;34.40;44.70
41447;DHT22;27185;52.040;4.490;2022-09-01T14:08:09;34.40;44.40
41447;DHT22;27185;52.040;4.490;2022-09-01T14:10:55;34.40;44.10
41447;DHT22;27185;52.040;4.490;2022-09-01T14:13:41;34.30;44.60
41447;DHT22;27185;52.040;4.490;2022-09-01T14:16:26;34.40;44.80
41447;DHT22;27185;52.040;4.490;2022-09-01T14:19:12;34.60;44.30
41447;DHT22;27185;52.040;4.490;2022-09-01T14:21:57;34.80;43.70
41447;DHT22;27185;52.040;4.490;2022-09-01T14:24:43;34.90;41.90
41447;DHT22;27185;52.040;4.490;2022-09-01T14:27:28;34.90;42.90
41447;DHT22;27185;52.040;4.490;2022-09-01T14:30:26;34.90;43.00
41447;DHT22;27185;52.040;4.490;2022-09-01T14:33:12;34.90;42.80
41447;DHT22;27185;52.040;4.490;2022-09-01T14:35:58;34.90;43.30
41447;DHT22;27185;52.040;4.490;2022-09-01T14:38:44;34.90;42.50
41447;DHT22;27185;52.040;4.490;2022-09-01T14:41:30;34.90;43.00
41447;DHT22;27185;52.040;4.490;2022-09-01T14:44:16;34.90;42.90
41447;DHT22;27185;52.040;4.490;2022-09-01T14:47:01;35.00;43.30
41447;DHT22;27185;52.040;4.490;2022-09-01T14:49:48;35.10;43.20
41447;DHT22;27185;52.040;4.490;2022-09-01T14:52:34;35.10;42.10
41447;DHT22;27185;52.040;4.490;2022-09-01T14:55:23;35.00;41.80
41447;DHT22;27185;52.040;4.490;2022-09-01T14:58:10;34.90;42.00
41447;DHT22;27185;52.040;4.490;2022-09-01T15:00:56;34.80;42.60
41447;DHT22;27185;52.040;4.490;2022-09-01T15:03:42;34.80;42.40
41447;DHT22;27185;52.040;4.490;2022-09-01T15:06:28;34.80;42.70
41447;DHT22;27185;52.040;4.490;2022-09-01T15:09:13;34.80;42.50
41447;DHT22;27185;52.040;4.490;2022-09-01T15:11:59;34.80;42.50
41447;DHT22;27185;52.040;4.490;2022-09-01T15:14:45;34.80;43.40
41447;DHT22;27185;52.040;4.490;2022-09-01T15:17:30;34.80;42.70
41447;DHT22;27185;52.040;4.490;2022-09-01T15:20:16;34.90;42.40
41447;DHT22;27185;52.040;4.490;2022-09-01T15:23:23;35.00;42.40
41447;DHT22;27185;52.040;4.490;2022-09-01T15:26:09;35.00;42.70
41447;DHT22;27185;52.040;4.490;2022-09-01T15:28:55;35.10;43.20
41447;DHT22;27185;52.040;4.490;2022-09-01T15:31:42;35.20;42.70
41447;DHT22;27185;52.040;4.490;2022-09-01T15:34:28;35.20;42.40
41447;DHT22;27185;52.040;4.490;2022-09-01T15:37:14;35.30;42.30
41447;DHT22;27185;52.040;4.490;2022-09-01T15:39:59;35.30;42.20
41447;DHT22;27185;52.040;4.490;2022-09-01T15:42:45;35.30;42.10
41447;DHT22;27185;52.040;4.490;2022-09-01T15:45:31;35.40;42.40
41447;DHT22;27185;52.040;4.490;2022-09-01T15:48:17;35.40;42.10
41447;DHT22;27185;52.040;4.490;2022-09-01T15:51:30;35.40;41.50
41447;DHT22;27185;52.040;4.490;2022-09-01T15:54:18;35.20;41.60
41447;DHT22;27185;52.040;4.490;2022-09-01T15:57:04;35.00;41.40
41447;DHT22;27185;52.040;4.490;2022-09-01T15:59:52;34.80;42.70
41447;DHT22;27185;52.040;4.490;2022-09-01T16:02:38;34.80;42.00
41447;DHT22;27185;52.040;4.490;2022-09-01T16:05:24;34.70;42.20
41447;DHT22;27185;52.040;4.490;2022-09-01T16:08:10;34.70;42.10
41447;DHT22;27185;52.040;4.490;2022-09-01T16:10:56;34.80;42.20
41447;DHT22;27185;52.040;4.490;2022-09-01T16:13:42;34.70;41.80
41447;DHT22;27185;52.040;4.490;2022-09-01T16:16:39;34.70;42.00
41447;DHT22;27185;52.040;4.490;2022-09-01T16:19:40;34.60;41.70
41447;DHT22;27185;52.040;4.490;2022-09-01T16:22:33;34.60;41.70
41447;DHT22;27185;52.040;4.490;2022-09-01T16:25:27;34.70;43.00
41447;DHT22;27185;52.040;4.490;2022-09-01T16:31:14;34.50;42.10
41447;DHT22;27185;52.040;4.490;2022-09-01T16:34:14;34.40;42.20
41447;DHT22;27185;52.040;4.490;2022-09-01T16:37:31;34.40;41.90
41447;DHT22;27185;52.040;4.490;2022-09-01T16:49:43;34.40;42.20
41447;DHT22;27185;52.040;4.490;2022-09-01T16:52:42;34.40;42.10
41447;DHT22;27185;52.040;4.490;2022-09-01T16:55:41;34.20;42.10
41447;DHT22;27185;52.040;4.490;2022-09-01T17:04:44;33.40;41.80
41447;DHT22;27185;52.040;4.490;2022-09-01T17:07:44;33.10;42.00
41447;DHT22;27185;52.040;4.490;2022-09-01T17:10:41;32.60;42.40
41447;DHT22;27185;52.040;4.490;2022-09-01T17:13:32;32.10;42.80
41447;DHT22;27185;52.040;4.490;2022-09-01T17:16:37;31.60;43.20
41447;DHT22;27185;52.040;4.490;2022-09-01T17:19:24;31.20;44.50
41447;DHT22;27185;52.040;4.490;2022-09-01T17:22:13;30.70;43.90
41447;DHT22;27185;52.040;4.490;2022-09-01T17:25:06;30.40;44.30
41447;DHT22;27185;52.040;4.490;2022-09-01T17:28:00;30.00;44.60
41447;DHT22;27185;52.040;4.490;2022-09-01T17:30:54;29.60;44.90
41447;DHT22;27185;52.040;4.490;2022-09-01T17:37:13;28.90;45.60
41447;DHT22;27185;52.040;4.490;2022-09-01T17:40:20;28.60;46.20
41447;DHT22;27185;52.040;4.490;2022-09-01T17:43:18;28.30;46.20
41447;DHT22;27185;52.040;4.490;2022-09-01T18:01:37;26.80;50.20
41447;DHT22;27185;52.040;4.490;2022-09-01T18:04:45;26.60;50.30
41447;DHT22;27185;52.040;4.490;2022-09-01T18:08:07;26.40;51.30
41447;DHT22;27185;52.040;4.490;2022-09-01T18:11:00;26.20;51.30
41447;DHT22;27185;52.040;4.490;2022-09-01T18:13:54;26.00;51.90
41447;DHT22;27185;52.040;4.490;2022-09-01T18:19:39;25.70;52.70
41447;DHT22;27185;52.040;4.490;2022-09-01T18:22:25;25.60;53.20
41447;DHT22;27185;52.040;4.490;2022-09-01T18:25:21;25.50;53.40
41447;DHT22;27185;52.040;4.490;2022-09-01T18:28:08;25.30;53.50
41447;DHT22;27185;52.040;4.490;2022-09-01T18:46:28;24.60;55.30
41447;DHT22;27185;52.040;4.490;2022-09-01T18:52:41;24.40;55.60
41447;DHT22;27185;52.040;4.490;2022-09-01T18:55:52;24.30;56.00
41447;DHT22;27185;52.040;4.490;2022-09-01T19:06:07;24.00;56.70
41447;DHT22;27185;52.040;4.490;2022-09-01T19:23:46;23.40;58.40
41447;DHT22;27185;52.040;4.490;2022-09-01T19:26:44;23.40;58.60
41447;DHT22;27185;52.040;4.490;2022-09-01T19:29:40;23.30;58.80
41447;DHT22;27185;52.040;4.490;2022-09-01T19:32:29;23.30;59.00
41447;DHT22;27185;52.040;4.490;2022-09-01T19:35:16;23.20;59.10
41447;DHT22;27185;52.040;4.490;2022-09-01T19:38:04;23.10;59.20
41447;DHT22;27185;52.040;4.490;2022-09-01T19:40:50;23.00;59.30
41447;DHT22;27185;52.040;4.490;2022-09-01T19:43:38;23.10;58.10
41447;DHT22;27185;52.040;4.490;2022-09-01T19:46:38;23.00;59.20
41447;DHT22;27185;52.040;4.490;2022-09-01T19:49:50;22.90;59.60
41447;DHT22;27185;52.040;4.490;2022-09-01T19:52:59;22.80;59.80
41447;DHT22;27185;52.040;4.490;2022-09-01T19:59:10;22.70;60.40
41447;DHT22;27185;52.040;4.490;2022-09-01T20:02:01;22.60;60.40
41447;DHT22;27185;52.040;4.490;2022-09-01T20:04:55;22.50;60.90
41447;DHT22;27185;52.040;4.490;2022-09-01T20:08:01;22.50;60.70